»·PEaware :: N16RD KRNM-KSNA

N16RD :: KRNM-KSNA

FLIGHT INFORMATION

Flight Status: Arrived
Operator: Privately registered:
United States
More flights under this callsign
Pilot: Brett B. (12105)
Aircraft: CESSNA 172 SKYHAWK
(C172)
More flights by this aircraft type
Origin: KRNM Ramona
United States
Destination: KSNA John Wayne-Orange Co
United States
More flights between these airports :: More routes between these airports
Route: +
File this flight plan on PilotEdge
Remarks:
Altitude:
(Current/Filed)
6,500ft
Speed:
(Current/Filed)
0kts
Departed: 02-Nov-20 01:07 PM
Arrived: 02-Nov-20 01:48 PM
Distance/Time
Traveled:
6738nm/0:41
Distance/Time
To Go:
Arrived

Flight Plot

Page will automatically refresh every two minutes.


Map Options




Map Legend


Flown Route
Filed Route
Departure Airport
Arrival Airport
Navaid (VOR, NDB)
Fix

Horizontal Profiles

Position Reports

Time Latitude Longitude Heading Altitude Ground
Speed
02-Nov-20 12:53 33.039572 -116.910324 278 1397ft 0kts
02-Nov-20 12:54 33.039572 -116.910324 278 1397ft 0kts
02-Nov-20 12:55 33.039572 -116.910324 278 1397ft 0kts
02-Nov-20 12:56 33.039548 -116.910823 263 1396ft 0kts
02-Nov-20 12:57 33.039548 -116.910823 263 1396ft 0kts
02-Nov-20 12:58 33.039548 -116.910823 263 1396ft 0kts
02-Nov-20 12:59 33.039145 -116.910243 101 1397ft 13kts
02-Nov-20 13:00 33.038466 -116.907464 196 1399ft 0kts
02-Nov-20 13:01 33.038466 -116.907464 196 1399ft 0kts
02-Nov-20 13:02 33.038385 -116.907478 182 1399ft 0kts
02-Nov-20 13:03 33.038385 -116.907478 182 1399ft 0kts
02-Nov-20 13:04 33.038385 -116.907478 182 1399ft 0kts
02-Nov-20 13:05 33.038385 -116.907478 182 1399ft 0kts
02-Nov-20 13:06 33.039567 -116.918116 277 1421ft 81kts
02-Nov-20 13:07 33.045351 -116.941308 307 2036ft 78kts
02-Nov-20 13:08 33.058193 -116.963043 300 2699ft 77kts
02-Nov-20 13:09 33.068069 -116.985242 293 3410ft 74kts
02-Nov-20 13:10 33.075222 -117.007998 286 4106ft 71kts
02-Nov-20 13:11 33.080577 -117.033295 295 4650ft 86kts
02-Nov-20 13:12 33.089582 -117.061642 292 5144ft 95kts
02-Nov-20 13:13 33.099877 -117.091545 292 5632ft 98kts
02-Nov-20 13:14 33.110349 -117.121541 292 6122ft 97kts
02-Nov-20 13:15 33.121133 -117.151906 292 6456ft 106kts
02-Nov-20 13:16 33.133636 -117.186828 292 6478ft 118kts
02-Nov-20 13:17 33.147257 -117.222598 294 6478ft 119kts
02-Nov-20 13:18 33.161509 -117.258190 294 6477ft 119kts
02-Nov-20 13:19 33.175952 -117.293753 301 6496ft 119kts
02-Nov-20 13:20 33.199412 -117.318135 282 6500ft 118kts
02-Nov-20 13:21 33.213324 -117.354038 294 6494ft 119kts
02-Nov-20 13:22 33.231932 -117.385701 326 6458ft 124kts
02-Nov-20 13:23 33.256888 -117.412837 300 6468ft 121kts
02-Nov-20 13:24 33.280154 -117.440259 320 6501ft 124kts
02-Nov-20 13:25 33.307649 -117.464553 341 6440ft 131kts
02-Nov-20 13:26 33.341817 -117.476086 343 6495ft 128kts
02-Nov-20 13:27 33.376061 -117.487400 349 6485ft 127kts
02-Nov-20 13:28 33.408113 -117.503951 327 6499ft 126kts
02-Nov-20 13:29 33.438282 -117.526041 327 6496ft 126kts
02-Nov-20 13:30 33.468425 -117.548198 327 6494ft 127kts
02-Nov-20 13:31 33.497865 -117.569828 327 6303ft 127kts
02-Nov-20 13:32 33.528962 -117.592869 327 5609ft 132kts
02-Nov-20 13:33 33.560219 -117.615971 327 4903ft 131kts
02-Nov-20 13:34 33.590263 -117.638204 327 4516ft 118kts
02-Nov-20 13:35 33.617412 -117.658226 327 4500ft 111kts
02-Nov-20 13:36 33.643824 -117.677709 327 4500ft 111kts
02-Nov-20 13:37 33.670126 -117.697306 327 4497ft 111kts
02-Nov-20 13:38 33.696523 -117.716908 327 4274ft 115kts
02-Nov-20 13:39 33.724872 -117.737930 327 3477ft 121kts
02-Nov-20 13:40 33.754393 -117.755886 338 2855ft 111kts
02-Nov-20 13:41 33.780379 -117.771036 295 2803ft 108kts
02-Nov-20 13:42 33.767710 -117.799803 227 2792ft 101kts
02-Nov-20 13:43 33.743898 -117.812986 192 2754ft 89kts
02-Nov-20 13:44 33.716982 -117.830957 214 1498ft 119kts
02-Nov-20 13:45 33.694528 -117.852171 221 303ft 78kts
02-Nov-20 13:46 33.679429 -117.864542 205 49ft 53kts
02-Nov-20 13:47 33.677200 -117.866393 296 54ft 0kts
02-Nov-20 13:48 33.677252 -117.866502 302 54ft 5kts
02-Nov-20 13:49 33.677040 -117.869502 206 52ft 20kts
02-Nov-20 13:50 33.675328 -117.871556 97 51ft 0kts
02-Nov-20 13:51 33.675328 -117.871556 97 51ft 0kts
02-Nov-20 13:52 33.675328 -117.871556 97 51ft 0kts
02-Nov-20 13:53 33.675328 -117.871556 97 51ft 0kts
02-Nov-20 13:54 0.000000 0.000000 0 0ft 0kts

Navigation Log

Ident Type
Flight plan parsing failed, navigation log unavailable